Time;durP1;ratioP1;P1;durP2;ratioP2;P2;SDS_P1;SDS_P2;PMS_P1;PMS_P2;Temp;Humidity;BMP_temperature;BMP_pressure;BME280_temperature;BME280_humidity;BME280_pressure;Samples;Min_cycle;Max_cycle;Signal;HPM_P1;HPM_P2
2022/06/24 00:01:58;;;;;;;7.80;5.47;;;;;;;14.72;66.56;100663.09;3351560;83;21494;-79
2022/06/24 00:06:50;;;;;;;7.75;5.00;;;;;;;14.65;66.75;100663.56;3429278;81;21038;-79
2022/06/24 00:11:42;;;;;;;5.70;5.10;;;;;;;14.61;66.76;100665.72;3372320;83;20985;-79
2022/06/24 00:17:01;;;;;;;6.62;5.92;;;;;;;14.51;66.75;100667.89;3449925;80;20952;-79
2022/06/24 00:22:11;;;;;;;8.20;5.35;;;;;;;14.45;66.94;100657.86;3383687;83;21074;-79
2022/06/24 00:27:06;;;;;;;7.00;5.72;;;;;;;14.39;67.00;100668.75;3429464;81;21112;-80
2022/06/24 00:32:08;;;;;;;7.65;6.10;;;;;;;14.29;67.13;100671.81;3351443;83;21558;-80
2022/06/24 00:42:01;;;;;;;6.55;5.80;;;;;;;14.16;67.24;100673.50;3558292;77;21022;-77
2022/06/24 00:46:57;;;;;;;6.30;5.72;;;;;;;14.10;67.44;100673.06;3566749;79;21437;-80
2022/06/24 00:51:48;;;;;;;7.78;5.50;;;;;;;14.04;67.60;100672.17;3574828;78;21985;-80
2022/06/24 00:56:39;;;;;;;8.80;6.30;;;;;;;14.00;67.65;100664.77;3529837;78;20980;-80
2022/06/24 01:01:38;;;;;;;6.80;5.37;;;;;;;13.95;67.55;100664.31;3544832;78;20967;-80
2022/06/24 01:06:31;;;;;;;8.50;6.55;;;;;;;13.90;67.60;100664.33;3600961;79;21555;-80
2022/06/24 01:11:28;;;;;;;6.90;6.17;;;;;;;13.81;67.83;100664.30;3605192;78;20955;-80
2022/06/24 01:16:24;;;;;;;8.30;6.78;;;;;;;13.81;68.02;100661.69;3587346;78;21562;-80
2022/06/24 01:21:35;;;;;;;7.10;6.40;;;;;;;13.80;68.22;100662.55;3580419;79;21414;-80
2022/06/24 01:26:26;;;;;;;7.12;6.42;;;;;;;13.72;68.09;100656.86;3561343;79;20959;-80
2022/06/24 01:31:17;;;;;;;7.50;6.80;;;;;;;13.66;68.22;100665.97;3543758;79;21453;-80
2022/06/24 01:36:08;;;;;;;6.75;6.05;;;;;;;13.57;68.30;100654.19;3549680;79;20992;-80
2022/06/24 01:41:00;;;;;;;6.45;5.85;;;;;;;13.52;68.39;100657.21;3540487;79;22014;-80
2022/06/24 01:45:51;;;;;;;6.05;5.45;;;;;;;13.48;68.42;100659.38;3523773;80;21007;-80
2022/06/24 01:50:43;;;;;;;5.65;5.15;;;;;;;13.44;68.47;100657.63;3540031;79;20931;-80
2022/06/24 01:55:34;;;;;;;6.47;5.60;;;;;;;13.39;68.63;100661.95;3519446;79;21024;-80
2022/06/24 02:00:26;;;;;;;6.25;5.65;;;;;;;13.31;68.78;100658.88;3497035;79;21526;-80
2022/06/24 02:05:20;;;;;;;5.90;5.40;;;;;;;13.23;68.81;100657.92;3478667;79;21927;-80
2022/06/24 02:15:21;;;;;;;6.87;5.60;;;;;;;13.11;68.90;100657.85;3473574;79;21469;-80
2022/06/24 02:20:12;;;;;;;6.50;5.80;;;;;;;13.05;69.04;100663.05;3519000;79;21011;-80
2022/06/24 02:25:04;;;;;;;6.62;5.80;;;;;;;12.98;69.09;100663.44;3565142;79;21492;-80
2022/06/24 02:29:56;;;;;;;7.70;5.47;;;;;;;12.95;69.36;100663.44;3459669;79;21063;-80
2022/06/24 02:34:47;;;;;;;5.83;5.25;;;;;;;12.85;69.25;100669.02;3515979;79;21520;-80
2022/06/24 02:39:38;;;;;;;6.37;5.77;;;;;;;12.81;69.31;100669.86;3457047;80;21001;-80
2022/06/24 02:44:30;;;;;;;5.72;5.12;;;;;;;12.78;69.35;100678.97;3544872;78;21129;-80
2022/06/24 02:49:21;;;;;;;6.60;6.00;;;;;;;12.77;69.49;100679.41;3531697;78;21345;-80
2022/06/24 02:54:12;;;;;;;6.05;5.47;;;;;;;12.78;69.69;100690.70;3522702;78;21744;-79
2022/06/24 02:59:04;;;;;;;5.92;5.33;;;;;;;12.80;69.48;100690.72;3542208;78;21290;-80
2022/06/24 03:03:55;;;;;;;6.92;5.95;;;;;;;12.79;69.53;100692.47;3538674;78;21237;-80
2022/06/24 03:08:46;;;;;;;6.83;6.22;;;;;;;12.75;69.67;100685.45;3554506;78;21456;-80
2022/06/24 03:13:37;;;;;;;6.90;6.20;;;;;;;13.05;69.75;100695.68;3499585;78;21478;-80
2022/06/24 03:18:29;;;;;;;7.60;5.97;;;;;;;14.23;69.23;100694.87;3522040;78;21760;-80
2022/06/24 03:23:20;;;;;;;7.03;5.75;;;;;;;15.71;67.30;100686.84;3534987;78;21341;-80
2022/06/24 03:28:12;;;;;;;7.00;6.10;;;;;;;16.86;65.25;100686.98;3529678;78;21532;-80
2022/06/24 03:33:04;;;;;;;5.85;5.35;;;;;;;18.16;63.44;100687.66;3522116;78;20970;-81
2022/06/24 03:37:55;;;;;;;6.12;5.55;;;;;;;19.31;61.38;100685.69;3552499;78;21168;-81
2022/06/24 03:42:47;;;;;;;5.80;5.30;;;;;;;19.81;59.62;100682.48;3525899;78;21002;-81
2022/06/24 03:47:38;;;;;;;5.35;4.95;;;;;;;19.68;58.54;100684.94;3517677;78;22283;-81
2022/06/24 03:52:29;;;;;;;6.20;5.60;;;;;;;18.66;58.86;100688.16;3528577;78;21026;-80
2022/06/24 03:57:21;;;;;;;5.40;4.90;;;;;;;17.46;59.79;100693.79;3507945;78;20936;-81
2022/06/24 04:02:12;;;;;;;7.85;5.65;;;;;;;16.57;61.14;100701.20;3587236;78;21471;-80
2022/06/24 04:07:04;;;;;;;5.72;5.10;;;;;;;15.99;62.48;100703.34;3553404;78;21807;-79
2022/06/24 04:11:55;;;;;;;6.20;5.62;;;;;;;15.56;63.50;100702.20;3533682;78;20954;-79
2022/06/24 04:16:46;;;;;;;7.70;5.37;;;;;;;15.30;64.42;100704.03;3520024;78;20989;-79
2022/06/24 04:21:38;;;;;;;8.23;6.17;;;;;;;15.09;65.25;100713.66;3592520;78;20994;-79
2022/06/24 04:26:30;;;;;;;5.37;4.87;;;;;;;14.99;66.18;100714.57;3510798;78;20936;-79
2022/06/24 04:31:21;;;;;;;6.15;5.40;;;;;;;14.94;66.88;100712.39;3561923;78;20963;-79
2022/06/24 04:36:13;;;;;;;6.20;5.60;;;;;;;14.94;67.51;100716.31;3502682;78;20924;-79
2022/06/24 04:41:18;;;;;;;5.10;4.60;;;;;;;14.96;68.09;100714.12;3531173;78;20895;-79
2022/06/24 04:46:09;;;;;;;6.75;5.25;;;;;;;15.01;68.45;100717.61;3504096;78;20955;-79
2022/06/24 04:51:02;;;;;;;6.28;5.58;;;;;;;15.12;68.80;100713.66;3555868;78;21025;-79
2022/06/24 04:55:53;;;;;;;5.67;4.70;;;;;;;15.22;69.02;100709.27;3560696;78;21487;-79
2022/06/24 05:00:44;;;;;;;10.65;5.37;;;;;;;15.37;69.23;100714.92;3554953;78;21089;-79
2022/06/24 05:05:36;;;;;;;8.73;5.22;;;;;;;15.55;69.39;100709.61;3552404;78;20998;-79
2022/06/24 05:10:27;;;;;;;6.35;5.28;;;;;;;15.72;69.42;100719.16;3510028;78;21250;-79
2022/06/24 05:15:18;;;;;;;5.55;4.58;;;;;;;15.87;69.54;100715.20;3453488;78;21501;-79
2022/06/24 05:20:10;;;;;;;9.23;4.65;;;;;;;16.05;69.33;100718.61;3556630;78;21286;-79
2022/06/24 05:25:01;;;;;;;5.87;4.03;;;;;;;16.32;69.40;100718.87;3531132;78;21470;-79
2022/06/24 05:29:52;;;;;;;5.22;3.95;;;;;;;16.80;68.85;100719.84;3531678;78;20962;-79
2022/06/24 05:34:44;;;;;;;7.80;4.35;;;;;;;17.15;68.50;100715.57;3537633;78;20947;-79
2022/06/24 05:39:35;;;;;;;4.12;3.58;;;;;;;17.36;67.84;100715.80;3500797;78;21508;-80
2022/06/24 05:44:27;;;;;;;5.95;4.08;;;;;;;18.57;65.80;100721.67;3533181;78;21306;-80
2022/06/24 05:49:18;;;;;;;6.35;3.45;;;;;;;19.18;65.09;100714.50;3535824;78;21473;-81
2022/06/24 05:59:19;;;;;;;3.65;3.05;;;;;;;19.99;64.17;100708.05;3524749;78;21038;-78
2022/06/24 06:04:10;;;;;;;8.45;3.80;;;;;;;19.90;63.66;100706.94;3513267;78;21734;-78
2022/06/24 06:09:02;;;;;;;7.05;3.67;;;;;;;19.74;63.53;100708.57;3479307;79;22708;-78
2022/06/24 06:13:55;;;;;;;4.53;3.25;;;;;;;19.74;63.49;100711.20;3552578;78;21006;-78
2022/06/24 06:18:48;;;;;;;2.65;2.45;;;;;;;19.80;63.18;100705.82;3535034;78;20971;-78
2022/06/24 06:23:41;;;;;;;3.17;2.33;;;;;;;19.96;62.36;100708.11;3498467;79;20998;-79
2022/06/24 06:28:34;;;;;;;3.10;2.80;;;;;;;20.05;62.06;100710.99;3531587;78;21062;-79
2022/06/24 06:33:26;;;;;;;2.67;2.42;;;;;;;20.47;61.18;100707.81;3578198;78;21101;-79
2022/06/24 06:38:17;;;;;;;4.83;2.58;;;;;;;20.67;60.37;100706.50;3518964;78;21464;-79
2022/06/24 06:43:10;;;;;;;2.83;2.62;;;;;;;20.92;59.63;100706.27;3504979;79;21025;-79
2022/06/24 06:48:02;;;;;;;3.33;2.50;;;;;;;21.45;58.37;100690.33;3522557;78;20942;-79
2022/06/24 06:52:53;;;;;;;2.95;2.27;;;;;;;21.56;58.02;100693.55;3506236;78;21496;-79
2022/06/24 06:57:44;;;;;;;4.75;2.72;;;;;;;22.14;56.37;100701.97;3565729;78;21000;-79
2022/06/24 07:02:37;;;;;;;12.10;2.80;;;;;;;22.95;54.98;100694.50;3566524;78;20988;-80
2022/06/24 07:07:28;;;;;;;4.30;2.12;;;;;;;23.04;54.48;100679.59;3561091;77;20955;-81
2022/06/24 07:12:19;;;;;;;3.15;2.30;;;;;;;22.99;53.94;100686.83;3544853;78;21514;-80
2022/06/24 07:17:11;;;;;;;2.70;2.15;;;;;;;22.98;54.10;100684.66;3515218;78;21594;-81
2022/06/24 07:22:04;;;;;;;2.30;2.15;;;;;;;23.07;53.59;100670.20;3513261;78;21130;-81
2022/06/24 07:26:55;;;;;;;3.12;2.75;;;;;;;24.72;51.04;100674.02;3528455;78;20923;-83
2022/06/24 07:31:47;;;;;;;2.15;2.02;;;;;;;26.02;48.74;100669.09;3518868;79;21030;-82
2022/06/24 07:36:38;;;;;;;3.40;2.02;;;;;;;29.40;44.34;100665.27;3515676;78;21441;-80
2022/06/24 07:41:29;;;;;;;10.97;3.50;;;;;;;33.41;40.37;100661.52;3557419;78;21089;-81
2022/06/24 07:46:21;;;;;;;1.95;1.67;;;;;;;36.57;36.79;100664.48;3576606;78;22089;-81
2022/06/24 07:51:16;;;;;;;3.72;2.02;;;;;;;38.66;33.62;100658.94;3516894;78;22066;-82
2022/06/24 08:01:17;;;;;;;2.00;1.90;;;;;;;41.28;29.57;100656.49;3552877;78;21915;-83
2022/06/24 08:06:08;;;;;;;2.85;1.72;;;;;;;41.38;27.72;100647.23;3552927;78;20951;-81
2022/06/24 08:10:59;;;;;;;2.47;2.27;;;;;;;39.38;28.69;100648.33;3576560;78;20998;-84
2022/06/24 08:15:50;;;;;;;1.77;1.67;;;;;;;36.14;29.48;100638.18;3559343;79;21519;-82
2022/06/24 08:20:42;;;;;;;2.05;1.77;;;;;;;34.22;30.76;100644.24;3530736;78;20974;-84
2022/06/24 08:25:33;;;;;;;2.00;1.85;;;;;;;34.87;30.17;100635.05;3554489;80;21042;-84
2022/06/24 08:30:24;;;;;;;2.58;1.67;;;;;;;37.84;27.43;100633.72;3571031;78;21524;-82
2022/06/24 08:35:16;;;;;;;3.22;1.90;;;;;;;40.13;26.12;100633.41;3563378;78;21171;-81
2022/06/24 08:40:08;;;;;;;2.15;1.95;;;;;;;41.18;24.33;100633.99;3526624;78;21017;-80
2022/06/24 08:44:59;;;;;;;1.72;1.67;;;;;;;42.11;23.57;100626.04;3517249;78;21446;-79
2022/06/24 08:49:50;;;;;;;2.37;1.95;;;;;;;42.90;22.75;100627.00;3559477;78;21425;-80
2022/06/24 08:54:43;;;;;;;1.77;1.72;;;;;;;43.70;22.16;100617.12;3537759;78;20967;-82
2022/06/24 08:59:34;;;;;;;1.87;1.77;;;;;;;44.06;20.91;100621.71;3507223;78;21035;-79
2022/06/24 09:04:25;;;;;;;1.77;1.67;;;;;;;44.18;20.78;100618.80;3574137;78;20938;-80
2022/06/24 09:09:26;;;;;;;1.92;1.60;;;;;;;44.51;20.77;100616.83;3559284;79;20939;-80
2022/06/24 09:14:17;;;;;;;5.03;1.60;;;;;;;44.04;19.92;100614.19;3533638;78;37491;-81
2022/06/24 09:19:14;;;;;;;1.60;1.50;;;;;;;40.00;22.35;100604.50;3516771;79;22095;-79
2022/06/24 09:24:06;;;;;;;2.05;1.52;;;;;;;37.41;24.07;100595.94;3543787;79;22455;-80
2022/06/24 09:28:58;;;;;;;2.05;1.85;;;;;;;36.00;24.37;100593.45;3488404;80;20925;-78
2022/06/24 09:33:49;;;;;;;2.05;1.65;;;;;;;36.45;24.02;100592.02;3492186;80;20959;-81
2022/06/24 09:39:02;;;;;;;2.47;2.27;;;;;;;38.26;22.81;100600.57;3503551;79;20948;-78
2022/06/24 09:43:58;;;;;;;2.27;1.52;;;;;;;37.44;23.31;100599.70;3523952;79;20963;-81
2022/06/24 09:48:53;;;;;;;4.20;1.98;;;;;;;36.55;23.66;100582.03;3462251;80;21493;-82
2022/06/24 09:53:45;;;;;;;1.70;1.57;;;;;;;38.81;22.41;100582.28;3571957;78;20977;-83
2022/06/24 09:58:40;;;;;;;1.52;1.42;;;;;;;40.18;21.36;100576.58;3584481;78;20959;-82
2022/06/24 10:03:34;;;;;;;2.55;1.42;;;;;;;41.32;21.32;100572.44;3598840;78;20916;-82
2022/06/24 10:08:31;;;;;;;4.05;1.98;;;;;;;41.93;20.15;100570.31;3567585;78;21448;-82
2022/06/24 10:13:29;;;;;;;1.75;1.62;;;;;;;42.34;19.82;100568.13;3602942;79;20945;-82
2022/06/24 10:18:32;;;;;;;1.80;1.70;;;;;;;42.13;19.64;100558.43;3550599;78;20936;-80
2022/06/24 10:23:45;;;;;;;1.57;1.50;;;;;;;42.05;20.13;100565.63;3461482;80;20927;-81
2022/06/24 10:29:03;;;;;;;3.77;1.60;;;;;;;42.10;19.96;100558.27;3540526;79;21485;-81
2022/06/24 10:33:56;;;;;;;2.10;1.77;;;;;;;42.02;19.84;100559.16;3371283;83;20980;-79
2022/06/24 10:38:49;;;;;;;1.50;1.50;;;;;;;41.99;19.77;100547.77;3311887;84;21517;-79
2022/06/24 10:43:44;;;;;;;4.33;1.67;;;;;;;41.89;20.40;100533.86;3328002;82;21064;-79
2022/06/24 10:48:54;;;;;;;1.87;1.45;;;;;;;41.72;20.26;100545.41;3380398;84;21026;-80
2022/06/24 10:54:09;;;;;;;1.55;1.45;;;;;;;41.41;21.34;100541.84;3339808;83;21040;-80
2022/06/24 10:59:01;;;;;;;1.60;1.50;;;;;;;40.88;20.76;100526.08;3351559;83;20970;-79
2022/06/24 11:03:53;;;;;;;1.72;1.62;;;;;;;39.96;21.44;100538.66;3339675;83;21510;-80
2022/06/24 11:08:44;;;;;;;1.40;1.30;;;;;;;38.07;21.95;100524.72;3421087;80;20976;-79
2022/06/24 11:13:35;;;;;;;2.60;2.30;;;;;;;36.41;23.04;100515.66;3554301;78;20939;-82
2022/06/24 11:18:31;;;;;;;2.83;1.42;;;;;;;35.11;24.21;100512.31;3492305;81;21002;-80
2022/06/24 11:23:26;;;;;;;4.05;2.15;;;;;;;34.24;25.75;100499.28;3514552;79;20948;-77
2022/06/24 11:28:20;;;;;;;;;;;;;;;33.65;26.15;100504.67;3468215;80;22120;-77
2022/06/24 11:33:12;;;;;;;2.52;1.47;;;;;;;33.50;26.16;100506.78;3602707;79;20141;-78
2022/06/24 11:38:09;;;;;;;1.92;1.50;;;;;;;33.43;27.69;100491.14;3602685;79;21433;-77
2022/06/24 11:43:07;;;;;;;1.70;1.60;;;;;;;33.27;27.95;100485.31;3503779;78;20991;-78
2022/06/24 11:47:59;;;;;;;1.67;1.57;;;;;;;32.91;27.88;100485.09;3517986;79;20987;-78
2022/06/24 11:52:51;;;;;;;4.67;1.70;;;;;;;32.99;27.35;100487.53;3541418;79;22406;-79
2022/06/24 11:57:42;;;;;;;1.62;1.42;;;;;;;33.02;27.89;100483.75;3566218;78;21184;-76
2022/06/24 12:02:35;;;;;;;1.45;1.32;;;;;;;32.95;27.68;100480.69;3525604;78;20995;-83
2022/06/24 12:07:26;;;;;;;1.80;1.70;;;;;;;33.09;28.15;100475.53;3527400;78;21041;-79
2022/06/24 12:12:17;;;;;;;2.83;1.95;;;;;;;33.08;28.35;100472.96;3555950;79;20935;-85
2022/06/24 12:17:10;;;;;;;1.60;1.50;;;;;;;33.10;27.93;100473.69;3507667;79;21736;-83
2022/06/24 12:22:11;;;;;;;4.67;2.02;;;;;;;33.15;26.89;100472.36;3535479;79;20928;-86
2022/06/24 12:27:04;;;;;;;2.55;1.82;;;;;;;33.03;26.94;100463.40;3427673;80;20919;-80
2022/06/24 12:31:55;;;;;;;2.85;1.77;;;;;;;32.83;28.66;100459.64;3547455;80;20932;-82
2022/06/24 12:36:46;;;;;;;3.70;1.70;;;;;;;33.03;27.76;100460.70;3465956;80;20954;-82
2022/06/24 12:41:50;;;;;;;3.93;1.63;;;;;;;33.11;28.47;100451.14;3526819;79;21057;-82
2022/06/24 12:51:54;;;;;;;2.65;1.60;;;;;;;33.08;27.23;100442.84;3559433;78;21220;-80
2022/06/24 12:56:45;;;;;;;2.70;1.50;;;;;;;33.18;27.53;100433.55;3595609;78;20958;-82
2022/06/24 13:01:46;;;;;;;2.12;1.42;;;;;;;33.00;27.44;100434.05;3617834;77;21074;-79
2022/06/24 13:06:38;;;;;;;2.45;1.55;;;;;;;33.14;27.31;100434.77;3559372;78;21069;-77
2022/06/24 13:11:29;;;;;;;3.90;1.52;;;;;;;33.18;26.93;100428.17;3568887;79;20994;-76
2022/06/24 13:16:21;;;;;;;4.22;1.62;;;;;;;33.28;27.49;100414.78;3580006;79;20978;-79
2022/06/24 13:21:12;;;;;;;1.80;1.70;;;;;;;33.16;27.01;100412.13;3611132;78;20892;-79
2022/06/24 13:26:03;;;;;;;2.00;1.90;;;;;;;33.26;28.30;100405.97;3588013;78;20923;-79
2022/06/24 13:30:55;;;;;;;1.70;1.50;;;;;;;33.35;27.42;100394.42;3580692;78;21144;-80
2022/06/24 13:35:47;;;;;;;2.55;2.30;;;;;;;33.20;27.45;100402.80;3595931;77;21292;-81
2022/06/24 13:40:38;;;;;;;1.70;1.60;;;;;;;33.02;27.06;100398.42;3578118;78;21026;-81
2022/06/24 13:45:30;;;;;;;1.98;1.87;;;;;;;32.85;27.32;100393.56;3545517;77;20931;-80
2022/06/24 13:50:21;;;;;;;2.10;1.90;;;;;;;32.83;27.28;100404.95;3544892;79;21017;-81
2022/06/24 13:55:13;;;;;;;2.52;1.90;;;;;;;32.82;27.95;100404.58;3585759;79;21301;-81
2022/06/24 14:00:06;;;;;;;3.30;1.95;;;;;;;32.87;27.94;100396.98;3479872;79;20961;-82
2022/06/24 14:05:07;;;;;;;3.55;2.00;;;;;;;32.84;27.35;100385.99;3561091;79;21041;-83
2022/06/24 14:09:59;;;;;;;1.85;1.75;;;;;;;32.76;27.38;100391.63;3570243;79;20951;-82
2022/06/24 14:14:50;;;;;;;2.90;2.10;;;;;;;32.64;27.03;100386.28;3516952;78;21663;-81
2022/06/24 14:19:42;;;;;;;3.12;1.90;;;;;;;32.58;26.66;100381.34;3610696;78;21207;-81
2022/06/24 14:24:33;;;;;;;2.10;1.90;;;;;;;32.49;27.15;100388.82;3510981;79;21433;-79
2022/06/24 14:29:24;;;;;;;2.35;1.85;;;;;;;32.53;27.49;100384.89;3551158;78;20955;-81
2022/06/24 14:34:15;;;;;;;2.20;1.80;;;;;;;32.69;27.83;100371.08;3517353;77;21393;-82
2022/06/24 14:44:16;;;;;;;2.12;1.77;;;;;;;32.70;27.57;100361.20;3592624;78;21894;-83
2022/06/24 14:49:08;;;;;;;2.98;2.52;;;;;;;32.67;27.56;100365.82;3556559;79;21548;-83
2022/06/24 14:54:00;;;;;;;2.83;2.35;;;;;;;32.55;27.20;100360.06;3581465;78;22348;-83
2022/06/24 14:58:51;;;;;;;3.58;2.15;;;;;;;32.33;27.38;100361.45;3526698;79;20912;-83
2022/06/24 15:03:42;;;;;;;2.35;1.98;;;;;;;32.27;27.42;100350.20;3576182;79;20946;-81
2022/06/24 15:08:36;;;;;;;5.25;2.55;;;;;;;32.22;26.91;100353.73;3538149;79;21147;-83
2022/06/24 15:13:27;;;;;;;2.10;2.00;;;;;;;32.05;27.22;100347.50;3570179;79;20900;-83
2022/06/24 15:18:19;;;;;;;1.87;1.77;;;;;;;31.95;27.35;100339.28;3482056;79;22092;-83
2022/06/24 15:23:10;;;;;;;3.62;2.50;;;;;;;31.88;27.30;100338.06;3495438;79;20948;-83
2022/06/24 15:28:01;;;;;;;2.10;1.90;;;;;;;31.84;27.37;100337.45;3446155;82;21034;-82
2022/06/24 15:32:52;;;;;;;3.45;3.02;;;;;;;31.79;27.58;100337.45;3503504;80;21143;-82
2022/06/24 15:37:44;;;;;;;2.35;2.15;;;;;;;31.75;27.94;100331.45;3487079;80;21502;-82
2022/06/24 15:42:36;;;;;;;3.72;2.30;;;;;;;31.65;28.08;100328.61;3533679;80;21508;-83
2022/06/24 15:47:27;;;;;;;3.42;2.35;;;;;;;31.58;28.08;100315.78;3477072;79;20959;-83
2022/06/24 15:52:19;;;;;;;2.58;2.37;;;;;;;31.47;28.21;100328.67;3490024;79;20960;-83
2022/06/24 15:57:10;;;;;;;3.20;2.70;;;;;;;31.22;27.94;100322.98;3524940;79;21965;-83
2022/06/24 16:02:02;;;;;;;3.85;2.33;;;;;;;31.08;27.88;100320.84;3441944;80;21000;-83
2022/06/24 16:06:55;;;;;;;2.65;1.92;;;;;;;30.94;28.22;100318.34;3599912;78;20977;-82
2022/06/24 16:16:55;;;;;;;2.05;1.95;;;;;;;30.58;28.65;100320.06;3588081;78;20970;-82
2022/06/24 16:21:47;;;;;;;2.53;2.27;;;;;;;30.51;28.53;100320.14;3521532;78;21148;-82
2022/06/24 16:31:48;;;;;;;2.25;2.00;;;;;;;30.34;28.56;100318.21;3543934;78;21061;-82
2022/06/24 16:36:40;;;;;;;1.65;1.52;;;;;;;30.22;28.79;100321.25;3567665;78;22180;-82
2022/06/24 16:41:31;;;;;;;3.15;2.08;;;;;;;30.14;28.90;100308.05;3570631;78;20974;-82
2022/06/24 16:51:29;;;;;;;4.60;2.00;;;;;;;29.94;29.67;100309.44;3620932;77;22696;-81
2022/06/24 16:56:20;;;;;;;4.05;2.47;;;;;;;29.72;29.86;100316.27;3482057;80;21858;-81
2022/06/24 17:01:12;;;;;;;2.80;1.85;;;;;;;29.59;29.97;100310.92;3499203;80;20989;-81
2022/06/24 17:06:07;;;;;;;2.17;1.90;;;;;;;29.57;30.15;100301.29;3479727;80;21480;-81
2022/06/24 17:11:01;;;;;;;2.35;2.15;;;;;;;29.45;30.41;100299.81;3488758;80;21496;-81
2022/06/24 17:15:53;;;;;;;5.35;2.42;;;;;;;29.34;30.61;100297.52;3457877;80;22476;-81
2022/06/24 17:20:44;;;;;;;3.77;1.60;;;;;;;29.18;30.66;100299.88;3457396;80;21410;-81
2022/06/24 17:25:36;;;;;;;2.83;2.52;;;;;;;29.08;31.22;100301.42;3478041;80;20971;-81
2022/06/24 17:30:28;;;;;;;2.58;2.37;;;;;;;28.91;31.33;100305.23;3483169;80;20975;-81
2022/06/24 17:35:20;;;;;;;2.40;2.20;;;;;;;28.77;31.57;100301.28;3491253;80;21038;-81
2022/06/24 17:40:12;;;;;;;4.47;2.70;;;;;;;28.63;32.27;100298.16;3508230;80;21532;-81
2022/06/24 17:45:06;;;;;;;2.45;2.20;;;;;;;28.47;32.44;100297.81;3448583;79;21133;-81
2022/06/24 17:49:57;;;;;;;4.33;2.70;;;;;;;28.30;33.21;100298.88;3470748;79;20987;-80
2022/06/24 17:54:48;;;;;;;4.78;2.77;;;;;;;28.07;33.89;100297.66;3454712;79;20975;-80
2022/06/24 17:59:39;;;;;;;3.62;2.45;;;;;;;27.83;34.58;100293.81;3487057;80;20982;-80
2022/06/24 18:04:31;;;;;;;3.52;2.70;;;;;;;27.53;34.87;100296.09;3474352;79;21034;-80
2022/06/24 18:09:22;;;;;;;15.90;3.00;;;;;;;27.18;35.10;100291.00;3487413;79;21157;-80
2022/06/24 18:14:13;;;;;;;5.58;3.17;;;;;;;26.86;35.54;100291.08;3436637;79;21476;-80
2022/06/24 18:19:06;;;;;;;4.12;3.02;;;;;;;26.58;36.51;100287.79;3431652;79;20955;-80
2022/06/24 18:23:57;;;;;;;4.42;2.52;;;;;;;26.28;36.99;100287.70;3450921;79;20983;-80
2022/06/24 18:28:49;;;;;;;3.08;2.40;;;;;;;26.01;37.55;100288.27;3460930;80;21620;-80
2022/06/24 18:33:41;;;;;;;2.95;2.60;;;;;;;25.72;37.86;100279.12;3458735;80;21162;-80
2022/06/24 18:38:32;;;;;;;2.85;2.33;;;;;;;25.46;38.34;100282.22;3457988;80;20975;-80
2022/06/24 18:43:23;;;;;;;2.75;2.55;;;;;;;25.20;38.50;100285.32;3481837;80;21465;-80
2022/06/24 18:48:15;;;;;;;4.15;2.75;;;;;;;24.95;39.22;100289.23;3472075;80;20967;-79
2022/06/24 18:53:07;;;;;;;4.95;3.52;;;;;;;24.71;39.99;100294.80;3475666;79;21630;-79
2022/06/24 18:57:58;;;;;;;4.58;2.85;;;;;;;24.45;40.52;100286.73;3532136;79;21469;-80
2022/06/24 19:02:49;;;;;;;2.87;2.50;;;;;;;24.25;41.46;100298.31;3515567;79;20975;-79
2022/06/24 19:07:41;;;;;;;3.10;2.90;;;;;;;24.03;41.57;100306.86;3501625;78;21602;-80
2022/06/24 19:12:33;;;;;;;3.58;3.22;;;;;;;23.81;42.21;100302.52;3467020;79;21000;-80
2022/06/24 19:17:24;;;;;;;4.58;3.22;;;;;;;23.54;42.78;100301.44;3458092;78;21009;-80
2022/06/24 19:22:16;;;;;;;5.50;3.27;;;;;;;23.35;43.23;100305.34;3509733;79;21503;-80
2022/06/24 19:27:08;;;;;;;3.08;2.87;;;;;;;23.15;43.99;100300.88;3475360;79;21002;-81
2022/06/24 19:32:00;;;;;;;3.92;3.00;;;;;;;22.95;44.64;100309.63;3478146;79;21112;-80
2022/06/24 19:36:52;;;;;;;7.17;3.40;;;;;;;22.78;44.20;100306.80;3513452;80;21487;-80
2022/06/24 19:41:43;;;;;;;3.95;3.30;;;;;;;22.61;44.90;100312.31;3508178;79;20947;-80
2022/06/24 19:46:35;;;;;;;5.92;3.42;;;;;;;22.38;45.54;100315.86;3475720;80;21152;-80
2022/06/24 19:51:28;;;;;;;8.53;4.30;;;;;;;22.25;46.04;100319.41;3467735;79;20980;-81
2022/06/24 19:56:19;;;;;;;9.80;3.40;;;;;;;22.09;46.28;100322.23;3429430;80;21003;-81
2022/06/24 20:01:12;;;;;;;6.05;4.17;;;;;;;21.86;47.04;100321.75;3423360;81;21011;-81
2022/06/24 20:06:03;;;;;;;6.12;3.60;;;;;;;21.67;47.55;100319.73;3448535;81;21018;-80
2022/06/24 20:10:59;;;;;;;6.25;3.87;;;;;;;21.49;48.29;100321.24;3508909;79;22044;-81
2022/06/24 20:15:52;;;;;;;6.10;4.15;;;;;;;21.35;48.75;100316.00;3435483;79;20951;-81
2022/06/24 20:20:44;;;;;;;5.42;3.98;;;;;;;21.22;49.22;100324.80;3407830;80;20990;-81
2022/06/24 20:25:39;;;;;;;7.10;3.90;;;;;;;21.07;49.61;100320.91;3452309;80;21668;-81
2022/06/24 20:30:36;;;;;;;6.40;3.65;;;;;;;20.93;50.11;100323.52;3416569;80;21026;-80
2022/06/24 20:35:24;;;;;;;6.70;4.30;;;;;;;20.81;50.31;100327.87;3454162;80;21520;-81
2022/06/24 20:40:15;;;;;;;8.10;3.92;;;;;;;20.66;50.57;100326.58;3477324;80;21003;-81
2022/06/24 20:45:08;;;;;;;6.95;4.70;;;;;;;20.53;50.89;100331.78;3471322;80;20975;-81
2022/06/24 20:50:00;;;;;;;7.87;4.67;;;;;;;20.40;51.41;100332.61;3457775;80;20975;-81
2022/06/24 20:54:51;;;;;;;9.63;4.37;;;;;;;20.30;51.86;100339.06;3448886;79;20991;-81
2022/06/24 20:59:42;;;;;;;12.65;5.65;;;;;;;20.14;51.88;100340.84;3452013;80;21023;-81
2022/06/24 21:04:34;;;;;;;8.05;4.47;;;;;;;20.07;52.18;100337.97;3476773;80;21007;-81
2022/06/24 21:09:25;;;;;;;6.60;5.20;;;;;;;19.97;52.54;100336.49;3453161;80;21026;-81
2022/06/24 21:14:17;;;;;;;9.03;4.90;;;;;;;19.87;52.60;100338.97;3455547;79;21014;-80
2022/06/24 21:19:08;;;;;;;6.62;4.90;;;;;;;19.76;52.84;100330.92;3394519;79;21010;-81
2022/06/24 21:23:59;;;;;;;8.03;4.83;;;;;;;19.67;53.17;100334.20;3437254;79;21138;-81
2022/06/24 21:28:51;;;;;;;6.72;4.65;;;;;;;19.61;53.55;100336.55;3421123;79;21002;-80
2022/06/24 21:33:42;;;;;;;9.55;4.87;;;;;;;19.47;53.86;100339.55;3435182;81;20959;-79
2022/06/24 21:38:34;;;;;;;7.70;5.80;;;;;;;19.42;53.92;100341.00;3417337;79;21480;-79
2022/06/24 21:43:26;;;;;;;6.78;4.67;;;;;;;19.33;54.19;100342.52;3451275;79;21757;-80
2022/06/24 21:48:17;;;;;;;6.17;4.47;;;;;;;19.27;54.10;100347.96;3445994;79;21097;-80
2022/06/24 21:53:09;;;;;;;8.45;4.53;;;;;;;19.13;54.32;100350.93;3479186;79;21025;-80
2022/06/24 21:58:00;;;;;;;6.90;5.03;;;;;;;19.11;54.53;100346.61;3452821;79;20954;-80
2022/06/24 22:02:52;;;;;;;7.33;5.25;;;;;;;18.98;54.55;100350.00;3429858;81;21065;-80
2022/06/24 22:07:43;;;;;;;9.75;6.00;;;;;;;18.86;54.79;100344.55;3413498;81;20983;-80
2022/06/24 22:12:36;;;;;;;6.97;6.03;;;;;;;18.77;55.15;100336.84;3402773;81;22022;-80
2022/06/24 22:17:51;;;;;;;8.10;6.17;;;;;;;18.62;55.38;100339.38;3424018;81;20984;-80
2022/06/24 22:22:42;;;;;;;7.25;6.37;;;;;;;18.49;55.36;100342.70;3435156;81;20980;-80
2022/06/24 22:27:33;;;;;;;8.20;6.40;;;;;;;18.38;55.95;100345.56;3467302;79;20975;-80
2022/06/24 22:32:25;;;;;;;12.07;6.40;;;;;;;18.29;55.99;100346.62;3479109;79;21169;-81
2022/06/24 22:37:16;;;;;;;7.40;6.17;;;;;;;18.23;56.24;100340.17;3460467;80;21130;-80
2022/06/24 22:42:08;;;;;;;7.20;6.42;;;;;;;18.14;56.55;100338.20;3440954;80;21493;-80
2022/06/24 22:46:59;;;;;;;10.88;6.20;;;;;;;18.03;56.57;100335.78;3432591;81;20997;-80
2022/06/24 22:51:50;;;;;;;5.95;5.35;;;;;;;17.96;57.07;100340.75;3358835;81;21053;-80
2022/06/24 22:56:41;;;;;;;6.80;5.83;;;;;;;17.84;56.98;100340.03;3382024;81;20993;-80
2022/06/24 23:01:32;;;;;;;6.95;5.58;;;;;;;17.79;57.79;100335.30;3407985;81;21512;-81
2022/06/24 23:06:24;;;;;;;6.95;5.12;;;;;;;17.74;58.03;100331.89;3416719;81;21013;-80
2022/06/24 23:11:15;;;;;;;7.15;5.08;;;;;;;17.71;57.88;100335.91;3391102;81;21041;-81
2022/06/24 23:16:06;;;;;;;6.75;5.47;;;;;;;17.61;57.98;100336.52;3431451;81;20997;-80
2022/06/24 23:20:58;;;;;;;5.95;5.35;;;;;;;17.55;58.55;100338.41;3435270;81;21084;-80
2022/06/24 23:25:49;;;;;;;6.83;5.92;;;;;;;17.49;58.48;100340.25;3464417;79;22144;-80